Portada
METAR-TAF:

METAR-TAF

Aeroports :

Lyndonville, Vermont, Estats Units d'Amèrica

latitud: 44-34-09N, longitud: 072-01-05W, altitud: 362 m

Observació

L'informe es va fer fa 13 minuts, a les 22:15 UTC
Vent 15 kt del Oest/Sud-Oest amb ràfegues de 32 kt
Temperatura -2°C
Humitat 74%
Pressió 999 hPa
Visibilitat: 2.0 km
Núvols disperses a una alçada de 1400 ft
Núvols disperses a una alçada de 1900 ft
Cel ennuvolat a una alçada de 2400 ft
neu

METAR: KCDA 012215Z AUTO 25015G32KT 1 1/4SM -SN SCT014 SCT019 BKN024 M02/M06 A2950 RMK AO2 T10181058

Hora: 17:28 (22:28 UTC)


TAF: manca

Observacions i pronòstics meteorològics de més de 4000 aeroports (METAR i TAF).

Les estacions disponibles són els punts grocs i vermells al mapa.

Posi el ratolí al punt desitjat per veure el nom de l'estació.

Feu clic per veure les observacions i els pronòstics meteorològics.

Per canviar el mapa: feu clic els botons verds amb una creu de color negre per apropar; al botó verd amb un guió per allunyar la imatge; o en les fletxes verdes per a mapes adjacents.


METAR-TAF: